UAAH/BXH METAR and TAF weather

Enter ICAO airport designator
Station Type Date Time Source
UAAH METAR 2021/03/06 02:00 UTC NOAA

UAAH 060200Z 07006MPS 9999 FEW034 M09/M11 Q1023 R05/2///50 NOSIG RMK QFE730/0973


Station Type Date Time Source
UAAH Decoded METAR 2021/03/06 02:00 UTC NOAA

Station name not available
Mar 05, 2021 - 09:00 PM EST / 2021.03.06 0200 UTC
Wind: from the ENE (070 degrees) at 13 MPH (12 KT):0
Visibility: greater than 7 mile(s):0
Sky conditions: mostly clear
Temperature: 15 F (-9 C)
Windchill: 1 F (-17 C):1
Dew Point: 12 F (-11 C)
Relative Humidity: 85%
Pressure (altimeter): 30.21 in. Hg (1023 hPa)
ob: UAAH 060200Z 07006MPS 9999 FEW034 M09/M11 Q1023 R05/2///50 NOSIG RMK QFE730/0973
cycle: 2

Station Type Date Time Source
UAAH TAF 2016/09/21 12:09 UTC NOAA

TAF
AMD TAF
AMD UAAH 211506Z 2112/2124 36006MPS CAVOK

Example: see airport list